• Join FlightAware (Why Join?)
  • Login
  • US Flag 
05:18AM EDT


 

Airport Tracker/Info


-or-


 

Live Flight TrackerFlight Track Log ✈ AWE1905 ✈ 27-Dec-2013 ✈ KDCA - KFLL

Flight Track Log - Related Links

Times and Time Zones

All times are in EST time to prevent confusion due to time zone crossing. See the AWE1905 flight status page for this flight to view local times or setup timezone preferences in your user account.

Time Position Orientation Groundspeed Altitude Reporting Facility
EST Latitude Longitude Course Direction KTS MPH feet Rate Location/Type
11:31AM 38.8167 -77.0333 180° South 160 184 1,900  Level Potomac TRACON
11:32AM 38.7500 -77.0333 180° South 243 280 3,200 1,800 Climbing Potomac TRACON
11:33AM 38.7000 -76.9667 134° Southeast 279 321 5,600 2,100 Climbing Potomac TRACON
11:34AM 38.3938 -77.1672 180° South  Level Estimated
11:34AM 38.6500 -76.8833 128° Southeast 294 338 7,400  Level Potomac TRACON
11:35AM 38.2792 -77.1993 173° South  Level Estimated
11:35AM 38.5989 -76.7978 127° Southeast 305 351 9,600  Level Washington Center
11:36AM 38.1646 -77.2313 180° South  Level Estimated
11:36AM 38.5308 -76.7197 138° Southeast 311 358 11,700  Level Washington Center
11:37AM 38.4433 -76.7103 175° South 303 349 14,400 2,640 Climbing Washington Center
11:38AM 38.3536 -76.7011 175° South 310 357 17,000 2,160 Climbing Washington Center
11:39AM 38.2536 -76.6836 172° South 324 373 18,900 1,800 Climbing Washington Center
11:40AM 38.1622 -76.6719 174° South 329 379 20,700 1,620 Climbing Washington Center
11:41AM 38.0664 -76.6600 174° South 335 386 22,200 1,380 Climbing Washington Center
11:42AM 37.9642 -76.6453 174° South 346 398 23,500 1,440 Climbing Washington Center
11:43AM 37.8581 -76.6333 175° South 369 425 25,200 1,500 Climbing Washington Center
11:44AM 37.7517 -76.6186 174° South 380 437 26,600 1,260 Climbing Washington Center
11:45AM 37.6433 -76.6042 174° South 390 449 27,800 1,140 Climbing Washington Center
11:46AM 37.5308 -76.5869 173° South 396 456 29,000 1,080 Climbing Washington Center
11:47AM 37.4142 -76.5725 174° South 407 468 30,000 960 Climbing Washington Center
11:48AM 37.2994 -76.5578 174° South 407 468 31,000 960 Climbing Washington Center
11:49AM 37.1808 -76.5278 169° South 418 481 32,000 480 Climbing Washington Center
11:50AM 37.0647 -76.4586 155° Southeast 437 503 32,000  Level Washington Center
11:51AM 36.9442 -76.3872 155° Southeast 451 519 32,000  Level Washington Center
11:52AM 36.8256 -76.3183 155° Southeast 461 531 32,000  Level Washington Center
11:53AM 36.7092 -76.2553 157° South 461 531 32,000  Level Washington Center
11:54AM 36.6028 -76.2672 185° South 403 464 32,000  Level Washington Center
11:55AM 36.5044 -76.3156 202° Southwest 380 437 32,000 -60 Level Washington Center
11:56AM 36.4081 -76.3583 200° South 375 432 31,900 -60 Descending Washington Center
11:57AM 36.3119 -76.4067 202° Southwest 375 432 31,900  Level Washington Center
11:58AM 36.2133 -76.4519 200° South 375 432 32,000  Climbing Washington Center
11:59AM 36.1150 -76.4969 200° South 375 432 32,000 -60 Level Washington Center
12:00PM 36.0208 -76.5422 201° Southwest 375 432 31,900  Descending Washington Center
12:01PM 35.9225 -76.5847 199° South 375 432 32,000  Climbing Washington Center
12:02PM 35.8261 -76.6322 202° Southwest 375 432 32,000  Level Washington Center
12:03PM 35.7275 -76.6794 201° Southwest 375 432 32,000  Level Washington Center
12:04PM 35.6292 -76.7267 201° Southwest 375 432 32,000  Level Washington Center
12:05PM 35.5283 -76.7711 200° South 380 437 32,000  Level Washington Center
12:06PM 35.4319 -76.8183 202° Southwest 380 437 32,000  Level Washington Center
12:07PM 35.3314 -76.8625 200° South 373 429 32,000  Level Washington Center
12:08PM 35.2328 -76.9067 200° South 378 435 32,000  Level Washington Center
12:09PM 35.1322 -76.9558 202° Southwest 378 435 32,000  Level Washington Center
12:10PM 35.0378 -77.0050 203° Southwest 378 435 32,000 -60 Level Washington Center
12:11PM 34.9369 -77.0489 200° South 378 435 31,900 -60 Descending Washington Center
12:12PM 34.8342 -77.0925 199° South 378 435 31,900  Level Washington Center
12:13PM 34.7356 -77.1389 201° Southwest 383 441 32,000  Climbing Washington Center
12:14PM 34.6328 -77.1822 199° South 388 447 32,000  Level Washington Center
12:15PM 34.5319 -77.2283 201° Southwest 388 447 32,000  Level Washington Center
12:16PM 34.4292 -77.2742 200° South 388 447 32,000  Level Washington Center
12:17PM 34.3261 -77.3222 201° Southwest 388 447 32,000  Level Washington Center
12:18PM 34.2256 -77.3653 199° South 388 447 32,000  Level Washington Center
12:19PM 34.1225 -77.4108 200° South 388 447 32,000 -60 Level Washington Center
12:20PM 34.0197 -77.4586 201° Southwest 393 452 31,900  Descending Washington Center
12:21PM 33.9189 -77.5014 199° South 388 447 32,000 60 Climbing Washington Center
12:22PM 33.8539 -77.5289 199° South 391 450 32,000  Level Jacksonville Center
12:23PM 33.7533 -77.5722 200° South 397 457 32,000 -60 Level Jacksonville Center
12:24PM 33.6533 -77.6208 202° Southwest 397 457 31,900 -60 Descending Jacksonville Center
12:25PM 33.5486 -77.6644 199° South 397 457 31,900  Level Jacksonville Center
12:26PM 33.4483 -77.7100 201° Southwest 397 457 32,000  Climbing Jacksonville Center
12:27PM 33.3478 -77.7558 201° Southwest 397 457 32,000  Level Jacksonville Center
12:28PM 33.2453 -77.7989 199° South 397 457 32,000  Level Jacksonville Center
12:29PM 33.1431 -77.8469 201° Southwest 397 457 32,000 -60 Level Jacksonville Center
12:30PM 33.0425 -77.8897 200° South 397 457 31,900 -60 Descending Jacksonville Center
12:31PM 32.9417 -77.9325 200° South 397 457 31,900  Level Jacksonville Center
12:32PM 32.8392 -77.9753 199° South 392 451 32,000  Climbing Jacksonville Center
12:33PM 32.7486 -78.0122 199° South 392 451 32,000  Level Jacksonville Center
12:34PM 32.6461 -78.0597 201° Southwest 392 451 32,000  Level Jacksonville Center
12:35PM 32.5433 -78.1022 199° South 392 451 32,000  Level Jacksonville Center
12:36PM 32.4408 -78.1469 200° South 392 451 32,000  Level Jacksonville Center
12:37PM 32.3403 -78.1914 200° South 392 451 32,000  Level Jacksonville Center
12:38PM 32.2292 -78.2389 200° South 392 451 32,000 -60 Level Jacksonville Center
12:39PM 32.1264 -78.2833 200° South 392 451 31,900 -60 Descending Jacksonville Center
12:40PM 32.0258 -78.3278 201° Southwest 392 451 31,900  Level Jacksonville Center
12:41PM 31.9231 -78.3719 200° South 398 458 32,000  Climbing Jacksonville Center
12:42PM 31.8181 -78.4161 200° South 398 458 32,000  Level Jacksonville Center
12:43PM 31.7153 -78.4578 199° South 404 465 32,000  Level Jacksonville Center
12:44PM 31.6103 -78.5042 201° Southwest 400 460 32,000  Level Jacksonville Center
12:45PM 31.5056 -78.5481 200° South 402 463 32,000  Level Jacksonville Center
12:46PM 31.4047 -78.5894 199° South 402 463 32,000  Level Jacksonville Center
12:47PM 31.2975 -78.6356 200° South 397 457 32,000  Level Jacksonville Center
12:48PM 31.1947 -78.6792 200° South 400 460 32,000  Level Jacksonville Center
12:49PM 31.0936 -78.7200 199° South 393 452 32,000 -60 Level Jacksonville Center
12:50PM 30.9867 -78.7636 199° South 403 464 31,900  Descending Jacksonville Center
12:51PM 30.8753 -78.8072 199° South 408 470 32,000  Climbing Jacksonville Center
12:52PM 30.7767 -78.8525 202° Southwest 402 463 32,000  Level Jacksonville Center
12:53PM 30.6714 -78.8956 199° South 407 468 32,000 -60 Level Jacksonville Center
12:54PM 30.5642 -78.9386 199° South 407 468 31,900 -60 Descending Jacksonville Center
12:55PM 30.4569 -78.9817 199° South 401 461 31,900  Level Jacksonville Center
12:56PM 30.3433 -79.0175 195° South 406 467 32,000  Climbing Jacksonville Center
12:57PM 30.1925 -79.0539 192° South 418 481 32,000  Level Miami Center
12:58PM 30.0858 -79.0831 193° South 412 474 32,000  Level Miami Center
12:59PM 29.9728 -79.1117 192° South 412 474 32,000  Level Miami Center
01:00PM 29.8639 -79.1453 195° South 412 474 32,000  Level Miami Center
01:01PM 29.7550 -79.1717 192° South 412 474 32,000  Level Miami Center
01:02PM 29.6481 -79.2006 193° South 412 474 32,000  Level Miami Center
01:03PM 29.5350 -79.2292 192° South 412 474 32,000  Level Miami Center
01:04PM 29.4219 -79.2553 191° South 412 474 32,000  Level Miami Center
01:05PM 29.3108 -79.2836 193° South 412 474 32,000  Level Miami Center
01:06PM 29.2019 -79.3122 193° South 412 474 32,100  Climbing Miami Center
01:07PM 29.0869 -79.3381 191° South 417 480 32,000 -60 Descending Miami Center
01:08PM 28.9800 -79.3667 193° South 411 473 32,000  Level Miami Center
01:09PM 28.8708 -79.3950 193° South 411 473 32,000  Level Miami Center
01:10PM 28.7578 -79.4231 192° South 411 473 32,000  Level Miami Center
01:11PM 28.6467 -79.4514 193° South 411 473 32,000  Level Miami Center
01:12PM 28.5333 -79.4769 191° South 411 473 32,000  Level Miami Center
01:13PM 28.4222 -79.5075 194° South 411 473 32,000  Level Miami Center
01:14PM 28.3069 -79.5331 191° South 416 479 32,000  Level Miami Center
01:15PM 28.1981 -79.5611 193° South 416 479 32,000  Level Miami Center
01:16PM 28.0886 -79.5986 197° South 416 479 32,000 -60 Level Miami Center
01:17PM 28.0161 -79.6814 225° Southwest 377 434 31,900 -840 Descending Miami Center
01:18PM 27.9561 -79.7669 232° Southwest 356 410 30,400 -960 Descending Miami Center
01:19PM 27.8936 -79.8547 231° Southwest 361 415 30,000 -240 Descending Miami Center
01:20PM 27.8356 -79.9422 233° Southwest 361 415 30,000 -60 Level Miami Center
01:21PM 27.7667 -80.0342 230° Southwest 355 409 29,900 -540 Descending Miami Center
01:22PM 27.6800 -80.0858 208° Southwest 347 399 29,000 -960 Descending Miami Center
01:23PM 27.5761 -80.0572 166° South 337 388 28,000 -1,020 Descending Miami Center
01:24PM 27.4944 -79.9706 137° Southeast 343 395 27,000 -1,020 Descending Miami Center
01:25PM 27.4128 -79.8911 139° Southeast 363 418 26,000 -1,200 Descending Miami Center
01:26PM 27.3392 -79.8075 135° Southeast 378 435 24,700 -1,020 Descending Miami Center
01:27PM 27.2483 -79.7561 153° Southeast 372 428 24,000 -360 Descending Miami Center
01:28PM 27.1633 -79.7328 166° South 357 411 24,000 -1,260 Level Miami Center
01:29PM 27.0678 -79.7025 164° South 357 411 21,500 -2,640 Descending Miami Center
01:30PM 26.9681 -79.6744 166° South 357 411 18,800 -2,400 Descending Miami Center
01:31PM 26.8831 -79.6492 165° South 337 388 16,800 -2,100 Descending Miami Center
01:33PM 26.7111 -79.6847 190° South 322 371 12,600 -1,920 Descending Miami Center
01:34PM 26.6589 -79.6786 174° South 300 345 11,900 -1,200 Descending Miami Center
01:34PM 26.6361 -79.6736 169° South 303 349 11,400 -1,500 Descending Miami Center
01:35PM 26.5694 -79.6650 173° South 291 335 10,200 -1,620 Descending Miami Center
01:35PM 26.5486 -79.6597 167° South 303 349 9,800 -1,200 Descending Miami Center
01:36PM 26.4944 -79.6539 174° South 288 331 9,100 -840 Descending Miami Center
01:36PM 26.4778 -79.6489 165° South 288 331 9,000 -360 Descending Miami Center
01:37PM 26.4128 -79.6636 191° South 277 319 8,700 -720 Descending Miami Center
01:37PM 26.4061 -79.6819 248° West 253 291 8,300 -780 Descending Miami Center
01:38PM 26.3967 -79.7397 260° West 263 303 8,000 -300 Descending Miami Center
01:38PM 26.3964 -79.7536 269° West 218 251 8,000  Level Miami Center
01:39PM 26.3867 -79.8161 260° West 241 277 8,000 -300 Level Miami Center
01:39PM 26.3864 -79.8344 269° West 233 268 7,700 -1,260 Descending Miami Center
01:40PM 26.3603 -79.8803 238° Southwest 239 275 6,700 -1,320 Descending Miami Center
01:40PM 26.3519 -79.8869 216° Southwest 235 270 6,400 -780 Descending Miami Center
01:41PM 26.3136 -79.9231 220° Southwest 237 273 6,000 -420 Descending Miami Center
01:41PM 26.2986 -79.9389 223° Southwest 235 270 6,000  Level Miami Center
01:42PM 26.2581 -79.9819 224° Southwest 240 276 6,000  Level Miami Center
01:42PM 26.2558 -79.9819 180° South 240 276 6,000  Level Miami Center
01:43PM 26.2069 -80.0292 221° Southwest 239 275 6,000  Level Miami Center
01:43PM 26.2067 -80.0339 266° West 240 276 6,000  Level Miami Center
01:44PM 26.1678 -80.0906 233° Southwest 246 283 6,000  Level Miami Center
01:45PM 26.1475 -80.1642 253° West 248 285 6,000 -420 Level Miami Center
01:46PM 26.1500 -80.2383 272° West 235 270 5,200 -960 Descending Miami Center
01:47PM 26.1481 -80.3122 268° West 228 262 4,100 -600 Descending Miami Center
01:48PM 26.1444 -80.3769 266° West 203 234 4,000 -60 Descending Miami Center
01:49PM 26.1306 -80.4319 254° West 190 219 4,000 -480 Level Miami Center
01:50PM 26.0831 -80.4192 166° South 180 207 3,100 -780 Descending Miami Center
01:51PM 26.0758 -80.3703 99° East 167 192 2,500 -360 Descending Miami Center
01:52PM 26.0753 -80.3078 91° East 170 196 2,400 -480 Descending Miami Center
01:53PM 26.0742 -80.2617 92° East 168 193 1,600 -780 Descending Miami Center
01:54PM 26.0753 -80.2175 88° East 134 154 900 -720 Descending Miami Center